Main page
METAR-TAF:

METAR-TAF

Airports :

Pula Airport

Pula, Croatia

latitude: 44-54N, longitude: 013-55E, elevation: 63 m

Current weather observation

The report was made 24 minutes ago, at 07:30 UTC
Wind 3 kt from variable directions
Temperature 1°C
Humidity 80%
Pressure 1014 hPa
Visibility 10 km or more
no clouds below 1500 m and no cumulonimbus

METAR: LDPL 200730Z VRB03KT CAVOK 01/M02 Q1014 NOSIG

Time: 08:54 (07:54 UTC)

Forecast

The report was made 2 hours and 29 minutes ago, at 05:25 UTC
Forecast valid from 20 at 06 UTC to 21 at 06 UTC
Wind 6 kt from the Northeast
Visibility 10 km or more
no clouds below 1500 m and no cumulonimbus
Becoming
from 21 at 04 UTC to 21 at 06 UTC
Wind 10 kt from the Northeast

TAF: LDPL 200525Z 2006/2106 04006KT CAVOK TX08/2013Z TN01/2105Z BECMG 2104/2106 04010KT

Weather observations and forecasts of more than 4000 airports (METAR and TAF reports).

The available stations are represented by yellow and red dots on the map.

Hover mouse over dot to see the name of the station.

Then click to see weather observations and forecasts.

To change the map : click on the green buttons with a black cross to zoom in, on the green button with a dash to zoom out, or on the green arrows for adjacent maps.


METAR-TAF: